Time;durP1;ratioP1;P1;durP2;ratioP2;P2;SDS_P1;SDS_P2;PMS_P1;PMS_P2;Temp;Humidity;BMP_temperature;BMP_pressure;BME280_temperature;BME280_humidity;BME280_pressure;Samples;Min_cycle;Max_cycle;Signal;HPM_P1;HPM_P2
2021/04/20 00:00:14;;;;;;;28.33;17.48;;;10.10;99.90;;;;;;4154464;28;20030;-67
2021/04/20 00:02:15;;;;;;;23.52;16.30;;;10.10;99.90;;;;;;4155908;28;20036;-67
2021/04/20 00:04:15;;;;;;;23.83;16.55;;;10.00;99.90;;;;;;4154388;28;20634;-66
2021/04/20 00:06:16;;;;;;;27.17;18.60;;;10.00;99.90;;;;;;4156552;28;20046;-67
2021/04/20 00:08:17;;;;;;;25.60;18.45;;;10.00;99.90;;;;;;4155677;28;20178;-66
2021/04/20 00:10:19;;;;;;;26.92;18.67;;;10.00;99.90;;;;;;4155954;28;20096;-66
2021/04/20 00:12:20;;;;;;;25.98;18.00;;;10.00;99.90;;;;;;4153349;28;20052;-66
2021/04/20 00:14:21;;;;;;;27.90;18.70;;;10.00;99.90;;;;;;4156596;28;20517;-67
2021/04/20 00:16:21;;;;;;;26.50;18.02;;;10.00;99.90;;;;;;4156302;28;20037;-66
2021/04/20 00:18:22;;;;;;;26.08;18.67;;;10.00;99.90;;;;;;4155952;28;20036;-66
2021/04/20 00:20:23;;;;;;;28.30;18.80;;;9.90;99.90;;;;;;4156505;28;20026;-67
2021/04/20 00:22:24;;;;;;;30.17;18.98;;;9.90;99.90;;;;;;4156575;28;20670;-66
2021/04/20 00:24:25;;;;;;;25.08;17.08;;;9.90;99.90;;;;;;4155235;28;20124;-66
2021/04/20 00:26:26;;;;;;;23.77;17.25;;;9.90;99.90;;;;;;4154679;28;20562;-67
2021/04/20 00:28:28;;;;;;;19.42;14.45;;;9.80;99.90;;;;;;4155363;28;20048;-67
2021/04/20 00:30:29;;;;;;;16.80;11.95;;;9.80;99.90;;;;;;4154798;28;20644;-66
2021/04/20 00:32:29;;;;;;;15.57;11.32;;;9.80;99.90;;;;;;4156369;28;20073;-67
2021/04/20 00:34:30;;;;;;;17.17;12.40;;;9.80;99.90;;;;;;4158903;28;20057;-67
2021/04/20 00:36:30;;;;;;;19.02;13.43;;;9.70;99.90;;;;;;4174152;28;20087;-66
2021/04/20 00:38:31;;;;;;;20.58;14.88;;;9.70;99.90;;;;;;4159066;28;20072;-67
2021/04/20 00:40:32;;;;;;;25.58;16.65;;;9.70;99.90;;;;;;4159064;28;20091;-66
2021/04/20 00:42:50;;;;;;;24.38;16.67;;;9.70;99.90;;;;;;4157687;28;20044;-67
2021/04/20 00:44:51;;;;;;;20.85;14.48;;;9.70;99.90;;;;;;4185609;28;20045;-67
2021/04/20 00:46:52;;;;;;;16.33;11.82;;;9.60;99.90;;;;;;4157781;28;20120;-67
2021/04/20 00:48:52;;;;;;;12.75;9.65;;;9.60;99.90;;;;;;4158472;28;20136;-66
2021/04/20 00:50:53;;;;;;;14.02;10.40;;;9.60;99.90;;;;;;4158074;28;20057;-66
2021/04/20 00:52:54;;;;;;;13.27;10.25;;;9.50;99.90;;;;;;4157851;28;20062;-66
2021/04/20 00:54:55;;;;;;;12.63;9.40;;;9.40;99.90;;;;;;4157809;28;20037;-67
2021/04/20 00:56:55;;;;;;;15.00;11.25;;;9.40;99.90;;;;;;4158867;28;20043;-67
2021/04/20 00:58:56;;;;;;;16.40;11.60;;;9.40;99.90;;;;;;4157847;28;20052;-67
2021/04/20 01:00:58;;;;;;;18.58;13.30;;;9.40;99.90;;;;;;4158680;28;20045;-67
2021/04/20 01:03:01;;;;;;;20.10;14.50;;;9.40;99.90;;;;;;4159165;28;20069;-67
2021/04/20 01:05:05;;;;;;;23.38;16.10;;;9.40;99.90;;;;;;4156411;28;20417;-67
2021/04/20 01:07:06;;;;;;;24.23;16.65;;;9.40;99.90;;;;;;4158590;28;20500;-67
2021/04/20 01:09:07;;;;;;;17.65;12.90;;;9.30;99.90;;;;;;4158426;28;20057;-66
2021/04/20 01:11:09;;;;;;;17.23;12.45;;;9.30;99.90;;;;;;4158967;28;20049;-66
2021/04/20 01:13:11;;;;;;;21.25;14.32;;;9.30;99.90;;;;;;4157598;28;20671;-66
2021/04/20 01:15:13;;;;;;;22.20;15.45;;;9.30;99.90;;;;;;4158356;28;20037;-66
2021/04/20 01:17:14;;;;;;;23.90;15.60;;;9.20;99.90;;;;;;4158889;28;20045;-67
2021/04/20 01:19:16;;;;;;;21.48;15.00;;;9.20;99.90;;;;;;4158517;28;20531;-67
2021/04/20 01:21:17;;;;;;;22.38;15.55;;;9.20;99.90;;;;;;4159404;28;20509;-66
2021/04/20 01:23:42;;;;;;;21.88;15.25;;;9.20;99.90;;;;;;4157542;28;20069;-66
2021/04/20 01:25:43;;;;;;;24.25;15.55;;;9.20;99.90;;;;;;4158571;28;20068;-67
2021/04/20 01:27:44;;;;;;;20.75;14.18;;;9.20;99.90;;;;;;4158905;28;20037;-67
2021/04/20 01:29:44;;;;;;;17.88;12.80;;;9.20;99.90;;;;;;4159513;28;20029;-67
2021/04/20 01:31:46;;;;;;;17.70;11.75;;;9.10;99.90;;;;;;4158933;28;20120;-67
2021/04/20 01:33:47;;;;;;;15.63;11.23;;;9.10;99.90;;;;;;4173478;28;20036;-67
2021/04/20 01:35:48;;;;;;;19.17;13.35;;;9.10;99.90;;;;;;4159239;28;20055;-66
2021/04/20 01:37:48;;;;;;;17.00;12.18;;;9.10;99.90;;;;;;4173771;28;20582;-66
2021/04/20 01:39:50;;;;;;;20.25;13.38;;;9.00;99.90;;;;;;4158201;28;20067;-67
2021/04/20 01:41:51;;;;;;;21.65;14.30;;;9.00;99.90;;;;;;4158925;28;20041;-67
2021/04/20 01:43:54;;;;;;;22.50;14.27;;;9.00;99.90;;;;;;4155896;28;20030;-67
2021/04/20 01:45:55;;;;;;;25.55;15.90;;;9.00;99.90;;;;;;4158518;28;20034;-67
2021/04/20 01:47:56;;;;;;;25.67;15.93;;;9.00;99.90;;;;;;4158520;28;20037;-67
2021/04/20 01:49:56;;;;;;;21.95;14.98;;;9.00;99.90;;;;;;4158149;28;20046;-67
2021/04/20 01:51:58;;;;;;;20.90;14.60;;;9.00;99.90;;;;;;4158603;28;20033;-67
2021/04/20 01:53:58;;;;;;;23.08;15.27;;;9.00;99.90;;;;;;4158291;28;20045;-67
2021/04/20 01:56:04;;;;;;;22.60;14.90;;;8.90;99.90;;;;;;4156838;28;20058;-67
2021/04/20 01:58:05;;;;;;;22.52;15.27;;;8.90;99.90;;;;;;4156001;28;20477;-67
2021/04/20 02:00:13;;;;;;;24.25;15.80;;;8.90;99.90;;;;;;4156207;28;20128;-67
2021/04/20 02:02:14;;;;;;;21.77;15.48;;;8.90;99.90;;;;;;4173148;28;20037;-67
2021/04/20 02:04:15;;;;;;;24.33;16.58;;;8.90;99.90;;;;;;4156481;28;20083;-67
2021/04/20 02:06:18;;;;;;;24.48;15.80;;;8.90;99.90;;;;;;4172914;28;20037;-67
2021/04/20 02:08:19;;;;;;;27.30;16.73;;;8.90;99.90;;;;;;4156966;28;20033;-67
2021/04/20 02:10:19;;;;;;;25.10;16.45;;;8.90;99.90;;;;;;4157392;28;20056;-67
2021/04/20 02:12:20;;;;;;;22.88;16.02;;;8.90;99.90;;;;;;4157926;28;20030;-66
2021/04/20 02:14:21;;;;;;;25.25;15.77;;;8.90;99.90;;;;;;4157240;28;20077;-66
2021/04/20 02:16:22;;;;;;;23.65;15.55;;;8.90;99.90;;;;;;4158204;28;20125;-67
2021/04/20 02:18:25;;;;;;;23.90;15.10;;;8.80;99.90;;;;;;4156125;28;20034;-67
2021/04/20 02:20:28;;;;;;;26.48;16.60;;;8.80;99.90;;;;;;4159196;28;20047;-66
2021/04/20 02:22:29;;;;;;;25.20;17.10;;;8.80;99.90;;;;;;4176549;28;20155;-67
2021/04/20 02:24:30;;;;;;;27.45;17.25;;;8.80;99.90;;;;;;4165333;28;20037;-67
2021/04/20 02:26:33;;;;;;;22.15;15.35;;;8.80;99.90;;;;;;4161088;28;20526;-67
2021/04/20 02:28:34;;;;;;;24.50;16.15;;;8.80;99.90;;;;;;4158768;28;20075;-67
2021/04/20 02:30:36;;;;;;;23.50;15.30;;;8.80;99.90;;;;;;4158309;28;20037;-67
2021/04/20 02:32:40;;;;;;;20.50;13.60;;;8.70;99.90;;;;;;4157896;28;20056;-67
2021/04/20 02:34:41;;;;;;;20.88;12.70;;;8.70;99.90;;;;;;4156215;28;20116;-67
2021/04/20 02:36:43;;;;;;;15.65;11.50;;;8.70;99.90;;;;;;4172855;28;20075;-67
2021/04/20 02:38:44;;;;;;;;;;;8.70;99.90;;;;;;4158565;28;20033;-67
2021/04/20 02:40:46;;;;;;;17.85;11.77;;;8.70;99.90;;;;;;4157748;28;19917;-67
2021/04/20 02:42:52;;;;;;;16.52;11.98;;;8.70;99.90;;;;;;4172542;28;20590;-67
2021/04/20 02:44:54;;;;;;;19.85;13.15;;;8.70;99.90;;;;;;4170347;28;20122;-67
2021/04/20 02:46:56;;;;;;;18.85;12.82;;;8.60;99.90;;;;;;4157671;28;20060;-67
2021/04/20 02:48:57;;;;;;;20.50;13.50;;;8.70;99.90;;;;;;4155572;28;20045;-67
2021/04/20 02:50:59;;;;;;;20.27;13.73;;;8.60;99.90;;;;;;4172397;28;20107;-67
2021/04/20 02:53:00;;;;;;;16.23;12.27;;;8.60;99.90;;;;;;4157274;28;20405;-67
2021/04/20 02:55:07;;;;;;;17.38;12.45;;;8.60;99.90;;;;;;4171132;28;20048;-67
2021/04/20 02:57:10;;;;;;;16.45;11.18;;;8.60;99.90;;;;;;4157186;28;20134;-67
2021/04/20 02:59:11;;;;;;;16.45;11.52;;;8.60;99.90;;;;;;4157092;28;20124;-67
2021/04/20 03:01:24;;;;;;;18.63;11.95;;;8.50;99.90;;;;;;4157200;28;20048;-67
2021/04/20 03:03:27;;;;;;;17.52;11.07;;;8.50;99.90;;;;;;4157414;28;20033;-67
2021/04/20 03:05:29;;;;;;;17.67;11.63;;;8.50;99.90;;;;;;4157099;28;20037;-67
2021/04/20 03:07:29;;;;;;;18.98;12.35;;;8.50;99.90;;;;;;4157612;28;20484;-67
2021/04/20 03:09:30;;;;;;;19.02;13.60;;;8.50;99.90;;;;;;4157201;28;20095;-67
2021/04/20 03:11:55;;;;;;;19.85;13.63;;;8.50;99.90;;;;;;4171846;28;20045;-67
2021/04/20 03:13:58;;;;;;;21.63;14.48;;;8.40;99.90;;;;;;4154229;28;20049;-66
2021/04/20 03:16:05;;;;;;;22.73;14.57;;;8.40;99.90;;;;;;4138419;28;20498;-67
2021/04/20 03:18:06;;;;;;;20.00;14.02;;;8.40;99.90;;;;;;4171861;28;20107;-67
2021/04/20 03:20:11;;;;;;;20.70;13.25;;;8.30;99.90;;;;;;4157215;28;20112;-67
2021/04/20 03:22:13;;;;;;;18.67;12.95;;;8.30;99.90;;;;;;4156138;28;20441;-67
2021/04/20 03:24:40;;;;;;;;;;;8.30;99.90;;;;;;4157790;28;20034;-66
2021/04/20 03:26:41;;;;;;;19.85;12.65;;;8.30;99.90;;;;;;4146365;28;20384;-67
2021/04/20 03:28:41;;;;;;;18.55;12.35;;;8.20;99.90;;;;;;4155740;28;20041;-67
2021/04/20 03:30:42;;;;;;;20.52;13.35;;;8.20;99.90;;;;;;4155979;28;20092;-67
2021/04/20 03:32:53;;;;;;;22.80;14.68;;;8.10;99.90;;;;;;4156748;28;20074;-67
2021/04/20 03:35:06;;;;;;;18.77;12.95;;;8.00;99.90;;;;;;4157413;28;20037;-67
2021/04/20 03:37:11;;;;;;;15.20;10.25;;;8.00;99.90;;;;;;4156592;28;20045;-66
2021/04/20 03:39:23;;;;;;;13.88;10.50;;;7.90;99.90;;;;;;4156944;28;20034;-66
2021/04/20 03:41:40;;;;;;;16.20;11.45;;;7.80;99.90;;;;;;4157402;28;20057;-66
2021/04/20 03:43:44;;;;;;;18.23;12.68;;;7.80;99.90;;;;;;4156542;28;20052;-67
2021/04/20 03:45:53;;;;;;;19.75;13.32;;;7.80;99.90;;;;;;4153283;28;20681;-67
2021/04/20 03:48:10;;;;;;;18.42;12.68;;;7.80;99.90;;;;;;4156048;28;20087;-67
2021/04/20 03:50:25;;;;;;;19.05;12.38;;;7.70;99.90;;;;;;4153048;28;20053;-67
2021/04/20 03:52:33;;;;;;;16.05;11.73;;;7.80;99.90;;;;;;4156629;28;20041;-67
2021/04/20 03:54:36;;;;;;;18.20;12.82;;;7.80;99.90;;;;;;4156997;28;20517;-67
2021/04/20 03:56:39;;;;;;;19.92;13.60;;;7.80;99.90;;;;;;4156392;28;20049;-67
2021/04/20 03:58:41;;;;;;;20.88;13.85;;;7.80;99.90;;;;;;4161132;28;20061;-67
2021/04/20 04:00:43;;;;;;;19.90;13.32;;;7.80;99.90;;;;;;4157085;28;20821;-67
2021/04/20 04:02:46;;;;;;;20.40;12.77;;;7.80;99.90;;;;;;4156236;28;21527;-67
2021/04/20 04:04:48;;;;;;;17.88;12.05;;;7.80;99.90;;;;;;4156585;28;20037;-67
2021/04/20 04:06:49;;;;;;;17.85;12.10;;;7.80;99.90;;;;;;4157397;28;20567;-66
2021/04/20 04:08:53;;;;;;;20.90;13.35;;;7.80;99.90;;;;;;4159821;28;20057;-67
2021/04/20 04:10:56;;;;;;;20.17;13.23;;;7.80;99.90;;;;;;4161794;28;20038;-67
2021/04/20 04:13:07;;;;;;;23.70;14.75;;;7.80;99.90;;;;;;4159918;28;20119;-66
2021/04/20 04:15:09;;;;;;;22.55;15.52;;;7.80;99.90;;;;;;4159831;28;20030;-67
2021/04/20 04:17:13;;;;;;;24.15;16.08;;;7.80;99.90;;;;;;4159378;28;20034;-67
2021/04/20 04:19:15;;;;;;;23.05;14.65;;;7.80;99.90;;;;;;4159731;28;20049;-67
2021/04/20 04:21:23;;;;;;;19.58;13.90;;;7.80;99.90;;;;;;4159504;28;20079;-67
2021/04/20 04:23:27;;;;;;;23.00;15.38;;;7.70;99.90;;;;;;4180967;28;20098;-67
2021/04/20 04:25:34;;;;;;;24.80;15.30;;;7.70;99.90;;;;;;4159804;28;20556;-66
2021/04/20 04:27:39;;;;;;;20.60;13.57;;;7.70;99.90;;;;;;4157579;28;20052;-66
2021/04/20 04:29:41;;;;;;;20.42;13.13;;;7.70;99.90;;;;;;4159820;28;20494;-67
2021/04/20 04:31:44;;;;;;;20.50;12.05;;;7.70;99.90;;;;;;4159463;28;20148;-66
2021/04/20 04:33:46;;;;;;;;;;;7.70;99.90;;;;;;4159912;28;20044;-67
2021/04/20 04:35:49;;;;;;;19.67;10.07;;;7.60;99.90;;;;;;4159494;28;19924;-66
2021/04/20 04:37:50;;;;;;;14.50;9.88;;;7.60;99.90;;;;;;4159263;28;20045;-66
2021/04/20 04:39:51;;;;;;;14.43;9.82;;;7.60;99.90;;;;;;4159428;28;20037;-67
2021/04/20 04:41:55;;;;;;;16.05;9.85;;;7.60;99.90;;;;;;4157516;28;20461;-66
2021/04/20 04:43:56;;;;;;;15.15;10.10;;;7.70;99.90;;;;;;4160417;28;20044;-66
2021/04/20 04:45:57;;;;;;;14.20;9.40;;;7.60;99.90;;;;;;4174927;28;20128;-66
2021/04/20 04:47:58;;;;;;;14.80;9.63;;;7.70;99.90;;;;;;4158617;28;20037;-66
2021/04/20 04:50:02;;;;;;;14.43;9.75;;;7.60;99.90;;;;;;4160036;28;20038;-66
2021/04/20 04:52:04;;;;;;;14.85;9.85;;;7.60;99.90;;;;;;4159467;28;20041;-66
2021/04/20 04:54:16;;;;;;;13.95;9.68;;;7.50;99.90;;;;;;4159009;28;20125;-67
2021/04/20 04:56:18;;;;;;;13.98;10.13;;;7.60;99.90;;;;;;4159657;28;20073;-66
2021/04/20 04:58:20;;;;;;;14.75;10.52;;;7.60;99.90;;;;;;4159981;28;20025;-66
2021/04/20 05:00:21;;;;;;;15.40;10.47;;;7.60;99.90;;;;;;4159358;28;20044;-66
2021/04/20 05:02:22;;;;;;;15.35;10.25;;;7.60;99.90;;;;;;4160394;28;20037;-66
2021/04/20 05:04:24;;;;;;;20.60;12.32;;;7.60;99.90;;;;;;4160998;28;20039;-67
2021/04/20 05:06:25;;;;;;;18.27;12.15;;;7.60;99.90;;;;;;4158748;28;20032;-66
2021/04/20 05:08:26;;;;;;;15.93;11.05;;;7.60;99.90;;;;;;4161049;28;20632;-67
2021/04/20 05:10:27;;;;;;;15.38;10.52;;;7.60;99.90;;;;;;4174067;28;20122;-67
2021/04/20 05:12:29;;;;;;;15.88;10.75;;;7.60;99.90;;;;;;4163708;28;20068;-66
2021/04/20 05:14:30;;;;;;;16.23;11.02;;;7.60;99.90;;;;;;4173225;28;20049;-66
2021/04/20 05:16:31;;;;;;;13.10;9.55;;;7.60;99.90;;;;;;4158844;28;20212;-67
2021/04/20 05:18:34;;;;;;;13.43;9.70;;;7.60;99.90;;;;;;4158529;28;20037;-67
2021/04/20 05:20:44;;;;;;;14.70;9.75;;;7.70;99.90;;;;;;4159317;28;20103;-66
2021/04/20 05:22:45;;;;;;;15.13;10.00;;;7.70;99.90;;;;;;4146890;28;20927;-66
2021/04/20 05:24:46;;;;;;;15.33;10.27;;;7.60;99.90;;;;;;4185626;28;20032;-66
2021/04/20 05:26:47;;;;;;;14.40;10.48;;;7.70;99.90;;;;;;4158626;28;20275;-66
2021/04/20 05:28:48;;;;;;;16.92;11.15;;;7.70;99.90;;;;;;4157160;28;20056;-66
2021/04/20 05:30:51;;;;;;;16.30;11.25;;;7.70;99.90;;;;;;4138044;28;20034;-66
2021/04/20 05:32:53;;;;;;;15.50;10.65;;;7.80;99.90;;;;;;4157065;28;20037;-66
2021/04/20 05:34:53;;;;;;;14.93;10.40;;;7.70;99.90;;;;;;4135959;28;20404;-67
2021/04/20 05:36:54;;;;;;;13.95;9.77;;;7.80;99.90;;;;;;4154371;28;20129;-67
2021/04/20 05:38:57;;;;;;;13.80;9.80;;;7.80;99.90;;;;;;4158635;28;20117;-67
2021/04/20 05:40:58;;;;;;;13.68;9.68;;;7.80;99.90;;;;;;4157878;28;20037;-67
2021/04/20 05:42:58;;;;;;;13.35;8.88;;;7.80;99.90;;;;;;4157961;28;20033;-67
2021/04/20 05:44:59;;;;;;;15.98;10.50;;;7.90;99.90;;;;;;4157205;28;20531;-70
2021/04/20 05:47:00;;;;;;;15.48;11.05;;;7.90;99.90;;;;;;4157104;28;20029;-67
2021/04/20 05:49:01;;;;;;;17.73;9.80;;;7.90;99.90;;;;;;4155002;28;20457;-67
2021/04/20 05:51:04;;;;;;;16.35;10.95;;;7.90;99.90;;;;;;4157200;28;20033;-66
2021/04/20 05:53:05;;;;;;;17.17;11.75;;;8.00;99.90;;;;;;4157599;28;20128;-65
2021/04/20 05:55:07;;;;;;;17.40;12.07;;;8.00;99.90;;;;;;4157593;28;20057;-65
2021/04/20 05:57:08;;;;;;;16.30;12.20;;;8.10;99.90;;;;;;4157912;28;20053;-66
2021/04/20 05:59:14;;;;;;;15.25;10.98;;;8.10;99.90;;;;;;4158065;28;20223;-65
2021/04/20 06:01:15;;;;;;;20.95;12.65;;;8.10;99.90;;;;;;4157232;28;20042;-65
2021/04/20 06:03:15;;;;;;;14.27;10.55;;;8.20;99.90;;;;;;4157882;28;20358;-65
2021/04/20 06:05:24;;;;;;;16.20;11.13;;;8.20;99.90;;;;;;4158010;28;20033;-65
2021/04/20 06:07:25;;;;;;;15.50;10.40;;;8.20;99.90;;;;;;4176808;28;20088;-65
2021/04/20 06:09:26;;;;;;;16.20;11.07;;;8.30;99.90;;;;;;4157196;28;20041;-65
2021/04/20 06:11:26;;;;;;;15.55;10.65;;;8.30;99.90;;;;;;4157100;28;20038;-66
2021/04/20 06:13:27;;;;;;;16.80;12.00;;;8.30;99.90;;;;;;4156798;28;20780;-65
2021/04/20 06:15:28;;;;;;;17.13;11.55;;;8.30;99.90;;;;;;4155043;28;20045;-65
2021/04/20 06:17:29;;;;;;;15.35;11.23;;;8.40;99.90;;;;;;4156728;28;20048;-65
2021/04/20 06:19:30;;;;;;;16.60;11.80;;;8.40;99.90;;;;;;4157021;28;20696;-65
2021/04/20 06:21:31;;;;;;;17.73;12.32;;;8.50;99.90;;;;;;4151766;28;20041;-65
2021/04/20 06:23:33;;;;;;;18.55;11.82;;;8.50;99.90;;;;;;4172289;28;20405;-65
2021/04/20 06:25:34;;;;;;;18.50;12.80;;;8.50;99.90;;;;;;4156155;28;20622;-65
2021/04/20 06:27:35;;;;;;;19.13;13.48;;;8.60;99.90;;;;;;4156169;28;20148;-65
2021/04/20 06:29:36;;;;;;;22.92;14.27;;;8.70;99.90;;;;;;4155491;28;20048;-65
2021/04/20 06:31:37;;;;;;;23.13;15.32;;;8.70;99.90;;;;;;4155306;28;20128;-65
2021/04/20 06:33:39;;;;;;;24.00;16.08;;;8.80;99.90;;;;;;4154428;28;20486;-65
2021/04/20 06:35:40;;;;;;;25.67;17.05;;;8.90;99.90;;;;;;4154980;28;20057;-65
2021/04/20 06:37:44;;;;;;;25.35;16.83;;;9.00;99.90;;;;;;4153901;28;20533;-65
2021/04/20 06:39:44;;;;;;;28.55;18.70;;;9.00;99.90;;;;;;4154502;28;20433;-65
2021/04/20 06:41:50;;;;;;;36.17;22.88;;;9.10;99.90;;;;;;4169671;28;20037;-68
2021/04/20 06:44:09;;;;;;;38.97;25.17;;;9.20;99.90;;;;;;4178368;28;20068;-65
2021/04/20 06:46:17;;;;;;;35.00;23.00;;;9.20;99.90;;;;;;4153494;28;20571;-66
2021/04/20 06:48:43;;;;;;;39.40;24.55;;;9.40;99.90;;;;;;4170925;28;20489;-66
2021/04/20 06:50:44;;;;;;;38.70;25.25;;;9.40;99.90;;;;;;4155916;28;20056;-68
2021/04/20 06:52:56;;;;;;;39.17;25.63;;;9.50;99.90;;;;;;4157162;28;20065;-65
2021/04/20 06:55:09;;;;;;;35.97;24.63;;;9.50;99.90;;;;;;4155993;28;20088;-65
2021/04/20 06:57:13;;;;;;;36.15;23.50;;;9.60;99.90;;;;;;4155998;28;20053;-65
2021/04/20 06:59:29;;;;;;;35.63;24.27;;;9.70;99.90;;;;;;4156060;28;20041;-65
2021/04/20 07:01:55;;;;;;;38.05;23.80;;;9.80;99.90;;;;;;4154873;28;20037;-65
2021/04/20 07:04:18;;;;;;;33.30;22.15;;;9.80;99.90;;;;;;4155873;28;20059;-65
2021/04/20 07:06:31;;;;;;;35.38;22.45;;;9.90;99.90;;;;;;4153931;28;20048;-65
2021/04/20 07:08:42;;;;;;;35.20;22.63;;;9.90;99.90;;;;;;4156389;28;20706;-66
2021/04/20 07:10:44;;;;;;;35.75;22.98;;;10.00;99.90;;;;;;4152668;28;20033;-67
2021/04/20 07:12:48;;;;;;;33.83;22.70;;;10.10;99.90;;;;;;4157228;28;20033;-66
2021/04/20 07:14:52;;;;;;;35.58;23.52;;;10.10;99.90;;;;;;4153956;28;20037;-66
2021/04/20 07:17:04;;;;;;;36.97;23.73;;;10.20;99.90;;;;;;4157361;28;20046;-67
2021/04/20 07:19:32;;;;;;;33.90;22.75;;;10.30;99.90;;;;;;4152705;28;20674;-67
2021/04/20 07:21:47;;;;;;;35.65;23.90;;;10.30;99.90;;;;;;4153287;28;20051;-67
2021/04/20 07:24:08;;;;;;;37.28;24.65;;;10.40;99.90;;;;;;4176544;28;20040;-66
2021/04/20 07:26:17;;;;;;;33.42;22.80;;;10.40;99.90;;;;;;4154216;28;20457;-67
2021/04/20 07:28:42;;;;;;;31.63;21.45;;;10.50;99.90;;;;;;4154909;28;20036;-67
2021/04/20 07:31:11;;;;;;;31.23;21.25;;;10.60;99.90;;;;;;4153462;28;20032;-66
2021/04/20 07:33:48;;;;;;;28.27;19.92;;;10.60;99.90;;;;;;4153379;28;20045;-66
2021/04/20 07:36:06;;;;;;;33.15;20.75;;;10.70;99.90;;;;;;4155478;28;20515;-66
2021/04/20 07:38:33;;;;;;;28.65;20.15;;;10.70;99.90;;;;;;4153636;28;20055;-66
2021/04/20 07:40:53;;;;;;;28.55;19.48;;;10.80;99.90;;;;;;4153803;28;20033;-66
2021/04/20 07:43:11;;;;;;;28.35;19.45;;;10.90;99.90;;;;;;4158680;28;20034;-66
2021/04/20 07:45:25;;;;;;;29.00;20.02;;;11.00;99.90;;;;;;4159651;28;20052;-66
2021/04/20 07:47:35;;;;;;;27.25;19.25;;;11.10;99.90;;;;;;4158805;28;20068;-66
2021/04/20 07:50:00;;;;;;;30.40;20.98;;;11.10;99.90;;;;;;4175366;28;20043;-66
2021/04/20 07:52:11;;;;;;;32.63;20.50;;;11.20;99.90;;;;;;4156547;28;20041;-66
2021/04/20 07:54:14;;;;;;;29.73;19.83;;;11.30;99.90;;;;;;4158690;28;20396;-66
2021/04/20 07:56:30;;;;;;;29.35;20.52;;;11.30;99.90;;;;;;4157794;28;20153;-67
2021/04/20 07:58:39;;;;;;;28.48;19.92;;;11.40;99.90;;;;;;4160631;28;20034;-67
2021/04/20 08:00:53;;;;;;;27.50;20.00;;;11.50;99.90;;;;;;4148346;28;20045;-67
2021/04/20 08:03:15;;;;;;;27.65;19.35;;;11.50;99.90;;;;;;4158957;28;20056;-67
2021/04/20 08:05:19;;;;;;;31.05;20.50;;;11.60;99.90;;;;;;4159893;28;20030;-67
2021/04/20 08:07:48;;;;;;;28.85;20.42;;;11.70;99.90;;;;;;4160157;28;20121;-67
2021/04/20 08:09:50;;;;;;;27.50;19.35;;;11.80;99.90;;;;;;4160242;28;20041;-67
2021/04/20 08:11:56;;;;;;;25.75;18.73;;;11.80;99.90;;;;;;4162143;28;20540;-67
2021/04/20 08:14:13;;;;;;;30.73;20.60;;;11.90;99.90;;;;;;4161072;28;20490;-67
2021/04/20 08:16:36;;;;;;;26.48;19.38;;;12.10;99.90;;;;;;4160157;28;20478;-67
2021/04/20 08:18:51;;;;;;;26.50;18.23;;;12.10;99.90;;;;;;4161268;28;20048;-67
2021/04/20 08:20:52;;;;;;;27.83;19.52;;;12.20;99.90;;;;;;4161025;28;21233;-67
2021/04/20 08:22:55;;;;;;;29.65;19.48;;;12.30;99.90;;;;;;4162183;28;20045;-67
2021/04/20 08:25:16;;;;;;;27.73;19.63;;;12.30;99.90;;;;;;4160307;28;20056;-67
2021/04/20 08:27:51;;;;;;;25.55;17.58;;;12.50;99.90;;;;;;4161759;28;20041;-67
2021/04/20 08:29:56;;;;;;;21.95;16.35;;;12.50;99.90;;;;;;4159734;28;20037;-67
2021/04/20 08:32:03;;;;;;;25.13;17.92;;;12.60;99.90;;;;;;4187696;28;20037;-67
2021/04/20 08:34:36;;;;;;;25.80;18.38;;;12.70;99.90;;;;;;4176678;28;20043;-67
2021/04/20 08:36:51;;;;;;;23.00;17.00;;;12.80;99.90;;;;;;4134080;28;20053;-67
2021/04/20 08:39:04;;;;;;;23.45;16.80;;;12.90;99.90;;;;;;4174347;28;20037;-66
2021/04/20 08:41:07;;;;;;;;;;;13.00;99.90;;;;;;4161377;28;20037;-69
2021/04/20 08:43:23;;;;;;;21.38;15.00;;;13.00;99.90;;;;;;4161066;28;19916;-67
2021/04/20 08:45:38;;;;;;;20.15;14.93;;;13.20;99.90;;;;;;4159565;28;21529;-67
2021/04/20 08:48:03;;;;;;;23.00;16.58;;;13.20;99.90;;;;;;4161399;28;20042;-67
2021/04/20 08:50:12;;;;;;;23.05;15.65;;;13.30;99.90;;;;;;4159773;28;20076;-66
2021/04/20 08:52:41;;;;;;;22.17;16.55;;;13.50;99.90;;;;;;4159519;28;20040;-66
2021/04/20 08:54:59;;;;;;;22.60;15.90;;;13.60;99.90;;;;;;4154906;28;20116;-67
2021/04/20 08:57:15;;;;;;;22.88;16.27;;;13.80;99.90;;;;;;4155778;28;20099;-66
2021/04/20 08:59:30;;;;;;;24.25;16.45;;;13.90;99.90;;;;;;4157149;28;20150;-66
2021/04/20 09:01:37;;;;;;;22.17;16.67;;;14.00;99.90;;;;;;4155481;28;20657;-67
2021/04/20 09:04:05;;;;;;;22.92;16.40;;;14.10;99.90;;;;;;4158151;28;20140;-67
2021/04/20 09:06:09;;;;;;;19.88;14.32;;;14.20;99.90;;;;;;4201876;28;20067;-67
2021/04/20 09:08:24;;;;;;;21.52;15.40;;;14.30;99.90;;;;;;4187762;28;20107;-66
2021/04/20 09:10:50;;;;;;;16.33;12.75;;;14.40;99.90;;;;;;4156377;28;20053;-66
2021/04/20 09:12:57;;;;;;;20.48;15.48;;;14.50;99.90;;;;;;4148476;28;20048;-67
2021/04/20 09:15:01;;;;;;;20.63;14.88;;;14.50;99.90;;;;;;4156810;28;20041;-66
2021/04/20 09:17:06;;;;;;;19.77;14.65;;;14.50;99.90;;;;;;4155417;28;20505;-66
2021/04/20 09:19:12;;;;;;;21.70;15.70;;;14.60;99.90;;;;;;4155761;28;20038;-66
2021/04/20 09:21:27;;;;;;;20.00;14.93;;;14.60;99.90;;;;;;4155163;28;20033;-66
2021/04/20 09:23:37;;;;;;;23.45;15.43;;;14.60;99.90;;;;;;4156485;28;20029;-66
2021/04/20 09:26:01;;;;;;;21.85;15.60;;;14.80;99.90;;;;;;4156320;28;20080;-66
2021/04/20 09:28:30;;;;;;;18.67;14.15;;;14.90;99.90;;;;;;4155270;28;20038;-67
2021/04/20 09:30:43;;;;;;;20.23;13.55;;;15.10;99.90;;;;;;4154941;28;20030;-66
2021/04/20 09:32:51;;;;;;;;;;;15.20;99.90;;;;;;4156335;28;20029;-66
2021/04/20 09:34:54;;;;;;;21.20;15.07;;;15.30;99.90;;;;;;4155629;28;20292;-66
2021/04/20 09:36:56;;;;;;;18.15;13.70;;;15.30;99.90;;;;;;4156477;28;20054;-66
2021/04/20 09:38:59;;;;;;;21.02;14.73;;;15.40;99.90;;;;;;4156521;28;20116;-66
2021/04/20 09:41:01;;;;;;;20.27;14.15;;;15.40;99.90;;;;;;4155139;28;20088;-66
2021/04/20 09:43:23;;;;;;;18.73;13.85;;;15.50;99.90;;;;;;4155708;28;20054;-67
2021/04/20 09:45:46;;;;;;;20.20;14.90;;;15.50;99.90;;;;;;4154449;28;20049;-67
2021/04/20 09:48:00;;;;;;;22.00;15.60;;;15.50;99.90;;;;;;4153203;28;20056;-67
2021/04/20 09:50:13;;;;;;;23.30;14.77;;;15.50;99.90;;;;;;4156751;28;20033;-67
2021/04/20 09:52:19;;;;;;;20.75;14.73;;;15.60;99.90;;;;;;4154284;28;20025;-67
2021/04/20 09:54:44;;;;;;;19.90;13.40;;;15.70;99.90;;;;;;4156545;28;20120;-67
2021/04/20 09:56:52;;;;;;;22.08;13.95;;;15.80;99.90;;;;;;4137504;28;20405;-67
2021/04/20 09:58:52;;;;;;;21.42;15.55;;;15.80;99.90;;;;;;4170534;28;20029;-67
2021/04/20 10:01:01;;;;;;;20.73;14.85;;;15.90;99.90;;;;;;4156456;28;20433;-67
2021/04/20 10:03:33;;;;;;;17.73;12.98;;;15.90;99.90;;;;;;4156207;28;20124;-67
2021/04/20 10:05:55;;;;;;;20.52;13.40;;;15.90;99.90;;;;;;4154553;28;20367;-67
2021/04/20 10:08:16;;;;;;;20.13;13.55;;;16.00;99.90;;;;;;4154258;28;20358;-67
2021/04/20 10:10:41;;;;;;;16.88;12.75;;;16.10;99.90;;;;;;4155798;28;20040;-67
2021/04/20 10:13:17;;;;;;;18.05;13.02;;;16.10;99.90;;;;;;4153894;28;20054;-67
2021/04/20 10:15:26;;;;;;;18.85;13.10;;;16.20;99.90;;;;;;4172574;28;20253;-67
2021/04/20 10:17:45;;;;;;;19.33;13.43;;;16.30;99.90;;;;;;4181912;28;20033;-67
2021/04/20 10:19:59;;;;;;;19.10;13.15;;;16.40;99.90;;;;;;4155568;28;20128;-67
2021/04/20 10:22:33;;;;;;;16.20;12.05;;;16.50;99.90;;;;;;4153110;28;20262;-67
2021/04/20 10:24:36;;;;;;;16.98;12.55;;;16.50;99.90;;;;;;4153881;28;20034;-67
2021/04/20 10:26:55;;;;;;;18.60;12.43;;;16.60;99.90;;;;;;4155416;28;20551;-67
2021/04/20 10:29:04;;;;;;;19.50;13.85;;;16.60;99.90;;;;;;4155360;28;20105;-67
2021/04/20 10:31:28;;;;;;;19.98;13.65;;;16.60;99.90;;;;;;4168969;28;20037;-67
2021/04/20 10:33:30;;;;;;;18.88;13.20;;;16.60;99.90;;;;;;4154468;28;20497;-67
2021/04/20 10:35:37;;;;;;;17.80;12.57;;;16.60;99.90;;;;;;4155109;28;20502;-67
2021/04/20 10:37:40;;;;;;;17.55;12.80;;;16.70;99.90;;;;;;4155428;28;20053;-67
2021/04/20 10:39:46;;;;;;;16.60;12.23;;;16.80;99.90;;;;;;4155331;28;20042;-67
2021/04/20 10:41:48;;;;;;;17.83;13.35;;;16.90;99.90;;;;;;4153349;28;20033;-67
2021/04/20 10:43:50;;;;;;;20.67;14.33;;;16.90;99.90;;;;;;4153740;28;20079;-67
2021/04/20 10:45:52;;;;;;;19.83;13.88;;;16.90;99.90;;;;;;4155112;28;20040;-67
2021/04/20 10:47:55;;;;;;;18.85;13.77;;;16.90;99.90;;;;;;4155136;28;20048;-67
2021/04/20 10:50:00;;;;;;;19.42;13.07;;;17.00;99.90;;;;;;4170580;28;20394;-66